createdAt,value
2018-05-29T00:00:30.674Z,875.43
2018-05-29T00:02:58.286Z,897.97
2018-05-29T00:05:25.913Z,905.87
2018-05-29T00:07:53.538Z,949.93
2018-05-29T00:10:21.117Z,967.70
2018-05-29T00:12:49.505Z,946.60
2018-05-29T00:15:17.118Z,885.27
2018-05-29T00:17:44.743Z,883.50
2018-05-29T00:20:12.326Z,879.63
2018-05-29T00:22:39.909Z,890.30
2018-05-29T00:25:07.527Z,894.03
2018-05-29T00:27:35.114Z,845.97
2018-05-29T00:30:02.745Z,823.30
2018-05-29T00:32:30.339Z,836.93
2018-05-29T00:34:57.960Z,834.93
2018-05-29T00:37:25.545Z,763.67
2018-05-29T00:39:53.174Z,743.87
2018-05-29T00:42:20.801Z,673.33
2018-05-29T00:44:48.413Z,449.40
2018-05-29T00:47:15.998Z,435.80
2018-05-29T00:49:43.641Z,382.17
2018-05-29T00:52:11.224Z,375.60
2018-05-29T00:54:38.845Z,340.30
2018-05-29T00:57:06.429Z,333.67
2018-05-29T00:59:34.050Z,324.47
2018-05-29T01:02:01.726Z,332.37
2018-05-29T01:04:30.073Z,316.60
2018-05-29T01:06:57.653Z,308.93
2018-05-29T01:09:25.292Z,282.47
2018-05-29T01:11:52.916Z,265.30
2018-05-29T01:14:20.573Z,217.30
2018-05-29T01:16:48.193Z,201.63
2018-05-29T01:19:15.828Z,221.47
2018-05-29T01:21:43.449Z,243.60
2018-05-29T01:24:11.080Z,261.67
2018-05-29T01:26:38.705Z,305.93
2018-05-29T01:29:06.290Z,338.57
2018-05-29T01:31:33.877Z,390.50
2018-05-29T01:34:01.516Z,399.27
2018-05-29T01:36:29.103Z,421.47
2018-05-29T01:38:56.694Z,404.93
2018-05-29T01:41:24.316Z,382.50
2018-05-29T01:43:51.908Z,351.90
2018-05-29T01:46:19.534Z,313.97
2018-05-29T01:48:47.120Z,312.53
2018-05-29T01:51:15.497Z,272.10
2018-05-29T01:53:43.842Z,241.10
2018-05-29T01:56:11.462Z,192.53
2018-05-29T01:58:39.088Z,211.03
2018-05-29T02:01:07.479Z,177.13
2018-05-29T02:03:35.829Z,245.53
2018-05-29T02:06:03.461Z,249.10
2018-05-29T02:08:31.050Z,271.43
2018-05-29T02:10:58.643Z,297.40
2018-05-29T02:13:26.267Z,335.43
2018-05-29T02:15:53.862Z,388.60
2018-05-29T02:18:21.483Z,435.70
2018-05-29T02:20:49.066Z,409.27
2018-05-29T02:23:16.693Z,441.23
2018-05-29T02:25:44.268Z,443.73
2018-05-29T02:28:11.885Z,423.37
2018-05-29T02:30:39.476Z,430.23
2018-05-29T02:33:07.094Z,442.13
2018-05-29T02:35:34.683Z,415.13
2018-05-29T02:38:02.308Z,376.13
2018-05-29T02:40:29.949Z,392.53
2018-05-29T02:42:57.526Z,378.97
2018-05-29T02:45:25.101Z,327.60
2018-05-29T02:47:53.497Z,289.37
2018-05-29T02:50:21.829Z,240.87
2018-05-29T02:52:49.451Z,248.63
2018-05-29T02:55:17.044Z,222.40
2018-05-29T02:57:44.705Z,240.90
2018-05-29T03:00:12.279Z,267.50
2018-05-29T03:02:39.908Z,311.70
2018-05-29T03:05:07.505Z,315.33
2018-05-29T03:07:35.126Z,315.30
2018-05-29T03:10:02.714Z,328.50
2018-05-29T03:12:30.333Z,390.87
2018-05-29T03:14:57.923Z,410.60
2018-05-29T03:17:25.545Z,426.47
2018-05-29T03:19:53.161Z,428.47
2018-05-29T03:22:20.745Z,468.87
2018-05-29T03:24:48.369Z,427.97
2018-05-29T03:27:15.958Z,457.80
2018-05-29T03:29:43.593Z,455.77
2018-05-29T03:32:11.184Z,453.00
2018-05-29T03:34:38.806Z,406.20
2018-05-29T03:37:06.394Z,438.57
2018-05-29T03:39:34.053Z,409.30
2018-05-29T03:42:01.637Z,350.33
2018-05-29T03:44:29.253Z,360.57
2018-05-29T03:46:56.885Z,374.00
2018-05-29T03:49:24.489Z,401.70
2018-05-29T03:51:52.073Z,416.03
2018-05-29T03:54:20.464Z,447.70
2018-05-29T03:56:48.049Z,426.57
2018-05-29T03:59:15.690Z,421.67
2018-05-29T04:01:43.272Z,416.30
2018-05-29T04:04:10.882Z,425.17
2018-05-29T04:06:38.497Z,405.33
2018-05-29T04:09:06.977Z,402.20
2018-05-29T04:11:34.561Z,400.83
2018-05-29T04:14:02.181Z,423.33
2018-05-29T04:16:30.559Z,406.17
2018-05-29T04:18:58.905Z,437.67
2018-05-29T04:21:26.532Z,421.77
2018-05-29T04:23:54.122Z,413.43
2018-05-29T04:26:21.757Z,404.63
2018-05-29T04:28:49.345Z,407.03
2018-05-29T04:31:16.979Z,389.30
2018-05-29T04:33:44.564Z,395.33
2018-05-29T04:36:12.183Z,418.17
2018-05-29T04:38:39.769Z,430.60
2018-05-29T04:41:07.439Z,428.10
2018-05-29T04:43:35.065Z,464.47
2018-05-29T04:46:03.419Z,441.03
2018-05-29T04:48:31.056Z,429.67
2018-05-29T04:50:58.677Z,366.37
2018-05-29T04:53:26.275Z,339.57
2018-05-29T04:55:53.896Z,275.37
2018-05-29T04:58:21.483Z,258.93
2018-05-29T05:00:49.107Z,249.43
2018-05-29T05:03:17.498Z,249.77
2018-05-29T05:05:45.151Z,228.50
2018-05-29T05:08:13.265Z,239.70
2018-05-29T05:10:40.896Z,251.63
2018-05-29T05:13:08.521Z,252.50
2018-05-29T05:15:36.101Z,263.63
2018-05-29T05:18:03.734Z,225.87
2018-05-29T05:20:31.330Z,226.97
2018-05-29T05:22:58.958Z,222.50
2018-05-29T05:25:26.546Z,232.57
2018-05-29T05:27:54.169Z,223.73
2018-05-29T05:30:21.794Z,215.10
2018-05-29T05:32:49.474Z,205.40
2018-05-29T05:35:17.061Z,205.90
2018-05-29T05:37:44.682Z,198.10
2018-05-29T05:40:12.283Z,189.97
2018-05-29T05:42:39.931Z,242.70
2018-05-29T05:45:07.557Z,268.07
2018-05-29T05:47:35.179Z,303.30
2018-05-29T05:50:02.757Z,299.33
2018-05-29T05:52:30.384Z,327.80
2018-05-29T05:54:57.961Z,418.90
2018-05-29T05:57:25.594Z,414.27
2018-05-29T05:59:53.169Z,396.67
2018-05-29T06:02:20.821Z,397.60
2018-05-29T06:04:48.418Z,440.97
2018-05-29T06:07:16.019Z,475.40
2018-05-29T06:09:43.649Z,437.10
2018-05-29T06:12:11.230Z,395.20
2018-05-29T06:14:39.618Z,422.33
2018-05-29T06:17:07.212Z,417.23
2018-05-29T06:19:34.849Z,386.20
2018-05-29T06:22:02.571Z,391.77
2018-05-29T06:24:30.155Z,335.67
2018-05-29T06:26:57.780Z,309.27
2018-05-29T06:29:25.363Z,315.00
2018-05-29T06:31:53.000Z,294.63
2018-05-29T06:34:20.577Z,266.80
2018-05-29T06:36:48.213Z,270.73
2018-05-29T06:39:15.797Z,222.93
2018-05-29T06:41:43.418Z,164.87
2018-05-29T06:44:11.038Z,127.97
2018-05-29T06:46:38.628Z,116.93
2018-05-29T06:49:06.338Z,97.93
2018-05-29T06:51:33.922Z,110.37
2018-05-29T06:54:02.318Z,107.27
2018-05-29T06:56:29.951Z,107.33
2018-05-29T06:58:57.520Z,111.10
2018-05-29T07:01:25.909Z,106.03
2018-05-29T07:03:54.266Z,139.70
2018-05-29T07:06:22.709Z,124.57
2018-05-29T07:08:50.546Z,106.03
2018-05-29T07:11:18.583Z,72.07
2018-05-29T07:13:47.524Z,75.50
2018-05-29T07:16:16.498Z,73.90
2018-05-29T07:18:44.846Z,68.33
2018-05-29T07:21:13.314Z,92.73
2018-05-29T07:23:49.521Z,140.67
2018-05-29T07:26:20.698Z,133.30
2018-05-29T07:28:49.579Z,194.27
2018-05-29T07:31:18.030Z,260.90
2018-05-29T07:33:47.491Z,297.53
2018-05-29T07:36:15.867Z,397.47
2018-05-29T07:38:44.059Z,461.23
2018-05-29T07:41:13.105Z,515.27
2018-05-29T07:43:41.215Z,535.33
2018-05-29T07:46:15.302Z,556.73
2018-05-29T07:48:43.253Z,582.70
2018-05-29T07:51:12.563Z,556.57
2018-05-29T07:53:40.333Z,598.47
2018-05-29T07:56:08.176Z,541.77
2018-05-29T07:58:35.990Z,610.20
2018-05-29T08:01:04.570Z,611.77
2018-05-29T08:03:32.384Z,596.63
2018-05-29T08:06:00.815Z,610.83
2018-05-29T08:08:29.335Z,626.70
2018-05-29T08:10:57.810Z,590.57
2018-05-29T08:13:25.536Z,605.10
2018-05-29T08:15:53.292Z,598.40
2018-05-29T08:18:20.932Z,596.73
2018-05-29T08:20:48.618Z,585.47
2018-05-29T08:23:16.202Z,574.03
2018-05-29T08:25:43.830Z,571.53
2018-05-29T08:28:11.463Z,564.23
2018-05-29T08:30:39.058Z,567.23
2018-05-29T08:33:06.684Z,551.90
2018-05-29T08:35:34.280Z,545.23
2018-05-29T08:38:01.911Z,531.17
2018-05-29T08:40:29.498Z,542.07
2018-05-29T08:42:57.078Z,539.80
2018-05-29T08:45:24.706Z,533.53
2018-05-29T08:47:52.343Z,525.57
2018-05-29T08:50:19.977Z,527.87
2018-05-29T08:52:47.564Z,526.53
2018-05-29T08:55:15.177Z,513.43
2018-05-29T08:57:42.798Z,524.37
2018-05-29T09:00:10.421Z,530.43
2018-05-29T09:02:38.101Z,533.20
2018-05-29T09:05:05.690Z,544.87
2018-05-29T09:07:33.278Z,545.87
2018-05-29T09:10:00.913Z,543.33
2018-05-29T09:12:28.512Z,539.17
2018-05-29T09:14:56.090Z,540.23
2018-05-29T09:17:23.722Z,532.93
2018-05-29T09:19:51.324Z,548.17
2018-05-29T09:22:18.918Z,554.00
2018-05-29T09:24:47.315Z,545.73
2018-05-29T09:27:15.703Z,530.67
2018-05-29T09:29:43.357Z,522.83
2018-05-29T09:32:10.935Z,525.03
2018-05-29T09:34:38.521Z,504.50
2018-05-29T09:37:06.166Z,473.97
2018-05-29T09:39:33.790Z,455.67
2018-05-29T09:42:01.423Z,366.73
2018-05-29T09:44:29.015Z,336.37
2018-05-29T09:46:56.602Z,320.07
2018-05-29T09:49:24.229Z,311.27
2018-05-29T09:51:51.868Z,203.63
2018-05-29T09:54:19.490Z,248.63
2018-05-29T09:56:47.078Z,180.27
2018-05-29T09:59:14.702Z,169.03
2018-05-29T10:01:42.285Z,152.20
2018-05-29T10:04:09.923Z,147.23
2018-05-29T10:06:37.522Z,130.83
2018-05-29T10:09:05.888Z,134.00
2018-05-29T10:11:33.518Z,107.63
2018-05-29T10:14:01.097Z,99.83
2018-05-29T10:16:28.733Z,106.53
2018-05-29T10:18:56.328Z,117.50
2018-05-29T10:21:23.956Z,136.70
2018-05-29T10:23:51.550Z,162.13
2018-05-29T10:26:19.179Z,144.93
2018-05-29T10:28:46.766Z,161.80
2018-05-29T10:31:14.385Z,179.47
2018-05-29T10:33:41.965Z,188.90
2018-05-29T10:36:10.355Z,181.97
2018-05-29T10:38:38.751Z,176.73
2018-05-29T10:41:06.333Z,197.67
2018-05-29T10:43:33.918Z,174.40
2018-05-29T10:46:01.590Z,167.03
2018-05-29T10:48:29.153Z,190.43
2018-05-29T10:50:56.778Z,170.63
2018-05-29T10:53:24.397Z,168.97
2018-05-29T10:55:52.756Z,154.60
2018-05-29T10:58:20.386Z,183.80
2018-05-29T11:00:47.969Z,169.13
2018-05-29T11:03:15.566Z,106.70
2018-05-29T11:05:43.211Z,109.00
2018-05-29T11:08:11.569Z,116.73
2018-05-29T11:10:39.154Z,95.33
2018-05-29T11:13:06.788Z,143.57
2018-05-29T11:15:35.174Z,152.23
2018-05-29T11:18:02.808Z,103.13
2018-05-29T11:20:30.384Z,87.00
2018-05-29T11:22:57.966Z,94.17
2018-05-29T11:25:25.590Z,134.07
2018-05-29T11:27:53.214Z,155.07
2018-05-29T11:30:20.875Z,126.97
2018-05-29T11:32:49.222Z,115.93
2018-05-29T11:35:16.819Z,113.67
2018-05-29T11:37:45.182Z,118.27
2018-05-29T11:40:12.779Z,120.33
2018-05-29T11:42:41.589Z,82.83
2018-05-29T11:45:09.217Z,89.67
2018-05-29T11:47:36.803Z,96.63
2018-05-29T11:50:04.430Z,124.57
2018-05-29T11:52:32.017Z,116.10
2018-05-29T11:54:59.655Z,125.97
2018-05-29T11:57:27.252Z,119.33
2018-05-29T11:59:54.882Z,148.50
2018-05-29T12:02:22.473Z,127.90
2018-05-29T12:04:50.101Z,159.53
2018-05-29T12:07:17.686Z,199.03
2018-05-29T12:09:45.317Z,176.50
2018-05-29T12:12:24.665Z,162.63
2018-05-29T12:14:52.310Z,194.83
2018-05-29T12:17:20.783Z,169.03
2018-05-29T12:19:48.386Z,205.13
2018-05-29T12:22:16.028Z,240.43
2018-05-29T12:24:43.661Z,244.83
2018-05-29T12:27:11.288Z,228.90
2018-05-29T12:29:40.748Z,282.53
2018-05-29T12:32:10.082Z,362.43
2018-05-29T12:34:40.112Z,399.50
2018-05-29T12:37:08.269Z,515.27
2018-05-29T12:39:36.022Z,551.57
2018-05-29T12:42:03.650Z,578.27
2018-05-29T12:44:31.282Z,577.27
2018-05-29T12:46:58.925Z,575.90
2018-05-29T12:49:26.514Z,606.03
2018-05-29T12:51:54.140Z,619.67
2018-05-29T12:54:21.726Z,619.57
2018-05-29T12:56:49.348Z,619.20
2018-05-29T12:59:16.949Z,625.47
2018-05-29T13:01:44.579Z,629.97
2018-05-29T13:04:13.706Z,617.47
2018-05-29T13:06:44.983Z,623.77
2018-05-29T13:09:16.206Z,637.93
2018-05-29T13:11:43.929Z,617.23
2018-05-29T13:14:11.575Z,604.83
2018-05-29T13:16:39.942Z,604.23
2018-05-29T13:19:07.537Z,587.23
2018-05-29T13:21:35.168Z,566.77
2018-05-29T13:24:02.797Z,556.60
2018-05-29T13:26:30.416Z,565.80
2018-05-29T13:28:58.773Z,562.67
2018-05-29T13:31:26.408Z,564.83
2018-05-29T13:33:54.003Z,565.73
2018-05-29T13:36:22.342Z,563.93
2018-05-29T13:38:50.006Z,561.43
2018-05-29T13:41:17.604Z,553.53
2018-05-29T13:43:45.996Z,577.03
2018-05-29T13:46:14.341Z,589.07
2018-05-29T13:48:41.993Z,651.17
2018-05-29T13:51:09.578Z,575.67
2018-05-29T13:53:37.172Z,385.17
2018-05-29T13:56:04.794Z,452.27
2018-05-29T13:58:32.390Z,441.63
2018-05-29T14:01:00.009Z,376.20
2018-05-29T14:03:27.592Z,424.17
2018-05-29T14:05:55.308Z,488.00
2018-05-29T14:08:22.891Z,450.80
2018-05-29T14:10:50.517Z,463.67
2018-05-29T14:13:18.296Z,550.57
2018-05-29T14:15:45.877Z,616.80
2018-05-29T14:18:13.498Z,644.67
2018-05-29T14:20:41.079Z,647.40
2018-05-29T14:23:08.669Z,641.40
2018-05-29T14:25:36.316Z,643.23
2018-05-29T14:28:03.905Z,639.90
2018-05-29T14:30:32.302Z,640.53
2018-05-29T14:33:00.651Z,639.60
2018-05-29T14:35:28.235Z,631.47
2018-05-29T14:37:55.860Z,621.07
2018-05-29T14:40:23.443Z,617.20
2018-05-29T14:42:51.078Z,610.77
2018-05-29T14:45:18.705Z,596.83
2018-05-29T14:47:46.286Z,576.63
2018-05-29T14:50:13.913Z,563.40
2018-05-29T14:52:41.505Z,548.80
2018-05-29T14:55:09.122Z,539.50
2018-05-29T14:57:36.707Z,543.20
2018-05-29T15:00:04.334Z,551.23
2018-05-29T15:02:31.962Z,562.97
2018-05-29T15:04:59.590Z,583.40
2018-05-29T15:07:27.170Z,588.77
2018-05-29T15:09:54.798Z,611.47
2018-05-29T15:12:22.439Z,617.63
2018-05-29T15:14:50.068Z,620.43
2018-05-29T15:17:17.693Z,617.50
2018-05-29T15:19:46.041Z,587.67
2018-05-29T15:22:13.672Z,596.83
2018-05-29T15:24:41.304Z,603.87
2018-05-29T15:27:09.640Z,599.73
2018-05-29T15:29:37.270Z,573.77
2018-05-29T15:32:04.858Z,553.57
2018-05-29T15:34:32.454Z,560.63
2018-05-29T15:37:00.087Z,557.43
2018-05-29T15:39:27.666Z,550.33
2018-05-29T15:41:55.307Z,556.37
2018-05-29T15:44:22.894Z,534.87
2018-05-29T15:46:50.491Z,545.90
2018-05-29T15:49:18.110Z,572.87
2018-05-29T15:51:45.700Z,611.97
2018-05-29T15:54:13.328Z,624.90
2018-05-29T15:56:40.917Z,637.50
2018-05-29T15:59:08.492Z,639.27
2018-05-29T16:01:36.113Z,642.17
2018-05-29T16:04:03.739Z,652.87
2018-05-29T16:06:31.321Z,640.87
2018-05-29T16:08:58.942Z,621.37
2018-05-29T16:11:26.534Z,591.57
2018-05-29T16:13:54.181Z,519.37
2018-05-29T16:16:21.818Z,436.03
2018-05-29T16:18:49.401Z,360.97
2018-05-29T16:21:16.990Z,268.03
2018-05-29T16:23:44.622Z,209.80
2018-05-29T16:26:12.213Z,179.33
2018-05-29T16:28:39.795Z,142.03
2018-05-29T16:31:08.229Z,138.97
2018-05-29T16:33:35.821Z,123.97
2018-05-29T16:36:03.441Z,104.80
2018-05-29T16:38:31.061Z,87.43
2018-05-29T16:40:58.642Z,77.13
2018-05-29T16:43:26.442Z,70.60
2018-05-29T16:45:54.030Z,70.43
2018-05-29T16:48:22.421Z,68.33
2018-05-29T16:50:49.994Z,74.97
2018-05-29T16:53:18.378Z,80.27
2018-05-29T16:55:46.760Z,85.30
2018-05-29T16:58:15.106Z,89.93
2018-05-29T17:00:42.726Z,84.77
2018-05-29T17:03:10.307Z,94.73
2018-05-29T17:05:38.657Z,87.47
2018-05-29T17:08:06.313Z,103.53
2018-05-29T17:10:33.904Z,65.13
2018-05-29T17:13:01.486Z,44.07
2018-05-29T17:15:29.191Z,105.03
2018-05-29T17:17:56.793Z,114.97
2018-05-29T17:20:24.475Z,135.43
2018-05-29T17:22:52.129Z,496.40
2018-05-29T17:25:19.727Z,449.57
2018-05-29T17:27:47.390Z,524.33
2018-05-29T17:30:15.817Z,554.23
2018-05-29T17:32:43.439Z,575.30
2018-05-29T17:35:11.069Z,555.70
2018-05-29T17:37:38.650Z,606.30
2018-05-29T17:40:06.334Z,701.30
2018-05-29T17:42:34.050Z,703.63
2018-05-29T17:45:01.706Z,531.53
2018-05-29T17:47:29.282Z,479.33
2018-05-29T17:49:56.901Z,543.57
2018-05-29T17:52:24.548Z,489.53
2018-05-29T17:54:52.195Z,498.67
2018-05-29T17:57:19.846Z,442.90
2018-05-29T17:59:47.450Z,501.60
2018-05-29T18:02:15.071Z,705.00
2018-05-29T18:04:42.693Z,661.10
2018-05-29T18:07:10.358Z,568.80
2018-05-29T18:09:37.994Z,691.27
2018-05-29T18:12:05.654Z,752.40
2018-05-29T18:14:33.264Z,766.00
2018-05-29T18:17:00.899Z,726.00
2018-05-29T18:19:28.530Z,745.87
2018-05-29T18:21:56.120Z,746.10
2018-05-29T18:24:23.761Z,605.10
2018-05-29T18:26:51.614Z,600.07
2018-05-29T18:29:19.171Z,554.97
2018-05-29T18:31:48.209Z,513.00
2018-05-29T18:34:15.809Z,516.23
2018-05-29T18:36:43.435Z,424.57
2018-05-29T18:39:12.014Z,362.60
2018-05-29T18:41:39.597Z,114.60
2018-05-29T18:44:07.207Z,57.60
2018-05-29T18:46:34.794Z,104.20
2018-05-29T18:49:07.267Z,126.87
2018-05-29T18:51:34.817Z,317.27
2018-05-29T18:54:03.264Z,424.60
2018-05-29T18:56:31.970Z,467.97
2018-05-29T18:59:00.576Z,541.67
2018-05-29T19:01:28.212Z,644.73
2018-05-29T19:03:55.887Z,705.87
2018-05-29T19:06:23.518Z,768.23
2018-05-29T19:08:51.864Z,806.40
2018-05-29T19:11:19.445Z,737.03
2018-05-29T19:13:47.069Z,671.63
2018-05-29T19:16:14.654Z,687.63
2018-05-29T19:18:42.274Z,456.60
2018-05-29T19:21:09.897Z,403.77
2018-05-29T19:23:37.520Z,459.83
2018-05-29T19:26:05.137Z,540.70
2018-05-29T19:28:32.724Z,558.80
2018-05-29T19:31:00.340Z,601.30
2018-05-29T19:33:27.932Z,561.40
2018-05-29T19:35:55.550Z,606.00
2018-05-29T19:38:23.943Z,654.97
2018-05-29T19:40:51.569Z,512.60
2018-05-29T19:43:19.561Z,437.07
2018-05-29T19:45:47.190Z,413.67
2018-05-29T19:48:14.773Z,447.27
2018-05-29T19:50:42.420Z,471.83
2018-05-29T19:53:10.002Z,458.37
2018-05-29T19:55:37.628Z,512.00
2018-05-29T19:58:05.224Z,506.40
2018-05-29T20:00:32.805Z,536.03
2018-05-29T20:03:00.429Z,564.87
2018-05-29T20:05:28.098Z,594.30
2018-05-29T20:07:55.793Z,601.23
2018-05-29T20:10:23.408Z,607.60
2018-05-29T20:12:51.030Z,602.73
2018-05-29T20:15:19.385Z,653.13
2018-05-29T20:17:47.009Z,685.23
2018-05-29T20:20:14.598Z,459.53
2018-05-29T20:22:42.219Z,300.50
2018-05-29T20:25:09.848Z,345.07
2018-05-29T20:27:38.201Z,481.00
2018-05-29T20:30:05.843Z,500.03
2018-05-29T20:32:34.184Z,212.63
2018-05-29T20:35:03.242Z,112.30
2018-05-29T20:37:31.904Z,123.40
2018-05-29T20:40:00.278Z,212.70
2018-05-29T20:42:27.899Z,282.13
2018-05-29T20:44:55.492Z,281.33
2018-05-29T20:47:23.109Z,316.67
2018-05-29T20:49:50.734Z,318.57
2018-05-29T20:52:18.354Z,333.13
2018-05-29T20:54:45.993Z,337.43
2018-05-29T20:57:13.617Z,329.80
2018-05-29T20:59:41.207Z,319.83
2018-05-29T21:02:08.921Z,334.63
2018-05-29T21:04:36.538Z,358.00
2018-05-29T21:07:04.438Z,357.40
2018-05-29T21:09:32.031Z,351.13
2018-05-29T21:11:59.614Z,357.23
2018-05-29T21:14:28.074Z,361.07
2018-05-29T21:16:55.654Z,351.30
2018-05-29T21:19:23.255Z,365.90
2018-05-29T21:21:51.638Z,367.63
2018-05-29T21:24:20.025Z,361.13
2018-05-29T21:26:49.585Z,368.27
2018-05-29T21:29:17.170Z,370.03
2018-05-29T21:31:44.758Z,342.60
2018-05-29T21:34:12.380Z,345.47
2018-05-29T21:36:40.022Z,344.80
2018-05-29T21:39:07.607Z,355.80
2018-05-29T21:41:35.194Z,375.77
2018-05-29T21:44:02.818Z,365.40
2018-05-29T21:46:30.456Z,367.73
2018-05-29T21:48:58.041Z,388.93
2018-05-29T21:51:25.630Z,403.17
2018-05-29T21:53:53.250Z,422.00
2018-05-29T21:56:20.876Z,403.60
2018-05-29T21:58:48.466Z,409.90
2018-05-29T22:01:16.051Z,413.73
2018-05-29T22:03:43.688Z,348.63
2018-05-29T22:06:11.310Z,337.97
2018-05-29T22:08:38.889Z,313.50
2018-05-29T22:11:06.510Z,312.33
2018-05-29T22:13:34.866Z,287.17
2018-05-29T22:16:02.487Z,307.87
2018-05-29T22:18:30.069Z,277.10
2018-05-29T22:20:57.732Z,290.53
2018-05-29T22:23:25.311Z,265.67
2018-05-29T22:25:52.942Z,265.00
2018-05-29T22:28:20.527Z,255.03
2018-05-29T22:30:48.114Z,255.30
2018-05-29T22:33:15.742Z,264.83
2018-05-29T22:35:43.378Z,237.33
2018-05-29T22:38:10.966Z,261.90
2018-05-29T22:40:38.553Z,268.43
2018-05-29T22:43:06.182Z,269.10
2018-05-29T22:45:33.769Z,285.57
2018-05-29T22:48:01.350Z,287.97
2018-05-29T22:50:28.983Z,239.70
2018-05-29T22:52:56.572Z,239.40
2018-05-29T22:55:24.210Z,233.13
2018-05-29T22:57:51.818Z,243.90
2018-05-29T23:00:19.408Z,200.80
2018-05-29T23:02:47.037Z,208.43
2018-05-29T23:05:14.674Z,235.47
2018-05-29T23:07:42.275Z,220.33
2018-05-29T23:10:09.856Z,237.20
2018-05-29T23:12:37.487Z,239.57
2018-05-29T23:15:05.128Z,233.93
2018-05-29T23:17:32.761Z,277.23
2018-05-29T23:20:00.341Z,274.00
2018-05-29T23:22:27.932Z,247.63
2018-05-29T23:24:55.557Z,267.60
2018-05-29T23:27:23.167Z,307.07
2018-05-29T23:29:50.753Z,307.17
2018-05-29T23:32:18.393Z,346.87
2018-05-29T23:34:46.014Z,341.87
2018-05-29T23:39:47.491Z,352.57
2018-05-29T23:42:15.118Z,369.53
2018-05-29T23:44:42.733Z,413.33
2018-05-29T23:47:10.352Z,392.50
2018-05-29T23:49:37.992Z,383.53
2018-05-29T23:52:05.570Z,389.53
2018-05-29T23:54:33.149Z,377.07
2018-05-29T23:57:00.774Z,413.60
2018-05-29T23:59:28.396Z,365.93
